createdAt,value
2023-03-26T00:01:39.452Z,9.44
2023-03-26T00:04:48.867Z,9.22
2023-03-26T00:07:55.317Z,9.06
2023-03-26T00:11:01.003Z,8.94
2023-03-26T00:14:09.955Z,8.93
2023-03-26T00:17:17.280Z,8.75
2023-03-26T00:20:23.897Z,8.92
2023-03-26T00:23:31.104Z,9.14
2023-03-26T00:26:37.757Z,9.09
2023-03-26T00:29:44.964Z,8.86
2023-03-26T00:32:53.615Z,8.72
2023-03-26T00:36:03.894Z,8.94
2023-03-26T00:39:10.310Z,9.02
2023-03-26T00:42:16.088Z,9.07
2023-03-26T00:45:23.027Z,9.14
2023-03-26T00:48:44.645Z,9.06
2023-03-26T00:51:50.462Z,9.06
2023-03-26T00:54:57.578Z,9.23
2023-03-26T00:58:01.549Z,8.89
2023-03-26T01:01:09.202Z,9.19
2023-03-26T01:04:31.308Z,9.13
2023-03-26T01:07:37.135Z,9.31
2023-03-26T01:10:45.388Z,9.23
2023-03-26T01:13:52.934Z,9.06
2023-03-26T01:17:02.184Z,9.17
2023-03-26T01:20:15.504Z,9.35
2023-03-26T01:23:26.332Z,8.93
2023-03-26T01:27:11.428Z,8.95
2023-03-26T01:30:22.932Z,8.90
2023-03-26T01:33:37.944Z,8.82
2023-03-26T01:36:51.295Z,9.13
2023-03-26T01:40:07.428Z,8.89
2023-03-26T01:43:29.745Z,8.86
2023-03-26T01:46:37.080Z,9.15
2023-03-26T01:49:42.515Z,8.85
2023-03-26T01:53:14.469Z,8.73
2023-03-26T01:56:29.580Z,8.51
2023-03-26T02:00:08.402Z,8.45
2023-03-26T02:03:28.027Z,8.91
2023-03-26T02:06:40.720Z,8.95
2023-03-26T02:09:50.420Z,8.80
2023-03-26T02:12:57.893Z,9.00
2023-03-26T02:16:12.333Z,8.97
2023-03-26T02:19:21.785Z,8.93
2023-03-26T02:22:31.804Z,8.99
2023-03-26T02:25:40.230Z,8.64
2023-03-26T02:28:44.958Z,8.87
2023-03-26T02:31:51.913Z,8.44
2023-03-26T02:34:59.085Z,8.37
2023-03-26T02:38:04.221Z,8.21
2023-03-26T02:41:11.165Z,8.44
2023-03-26T02:44:33.317Z,8.48
2023-03-26T02:47:39.963Z,8.42
2023-03-26T02:51:08.164Z,8.15
2023-03-26T02:54:46.137Z,8.00
2023-03-26T02:58:02.165Z,8.42
2023-03-26T03:01:26.157Z,8.62
2023-03-26T03:04:44.610Z,8.61
2023-03-26T03:07:50.292Z,8.48
2023-03-26T03:11:11.671Z,8.67
2023-03-26T03:14:22.105Z,8.74
2023-03-26T03:17:27.425Z,8.57
2023-03-26T03:20:35.351Z,8.32
2023-03-26T03:23:39.679Z,8.30
2023-03-26T03:26:50.447Z,8.38
2023-03-26T03:30:14.996Z,8.40
2023-03-26T03:33:38.400Z,8.52
2023-03-26T03:36:48.852Z,8.46
2023-03-26T03:40:11.146Z,8.53
2023-03-26T03:43:17.980Z,8.39
2023-03-26T03:46:40.586Z,8.36
2023-03-26T03:49:49.221Z,8.34
2023-03-26T03:52:55.973Z,8.30
2023-03-26T03:56:02.160Z,8.33
2023-03-26T03:59:47.992Z,8.04
2023-03-26T04:02:56.891Z,8.00
2023-03-26T04:06:11.300Z,8.04
2023-03-26T04:09:25.189Z,8.14
2023-03-26T04:12:34.878Z,7.95
2023-03-26T04:15:42.175Z,8.13
2023-03-26T04:18:47.346Z,8.05
2023-03-26T04:22:05.383Z,8.03
2023-03-26T04:25:17.908Z,7.87
2023-03-26T04:28:33.130Z,7.75
2023-03-26T04:31:52.314Z,7.40
2023-03-26T04:35:05.601Z,7.75
2023-03-26T04:38:17.468Z,7.79
2023-03-26T04:41:33.896Z,7.70
2023-03-26T04:44:43.095Z,7.77
2023-03-26T04:47:54.476Z,7.58
2023-03-26T04:51:00.563Z,7.64
2023-03-26T04:54:20.546Z,7.74
2023-03-26T04:57:54.846Z,7.16
2023-03-26T05:02:24.130Z,7.52
2023-03-26T05:06:34.764Z,7.55
2023-03-26T05:09:52.060Z,7.65
2023-03-26T05:16:57.693Z,7.09
2023-03-26T05:20:30.427Z,6.94
2023-03-26T05:23:42.685Z,7.28
2023-03-26T05:27:04.201Z,7.06
2023-03-26T05:30:17.957Z,7.37
2023-03-26T05:33:27.519Z,7.67
2023-03-26T05:36:46.180Z,7.87
2023-03-26T05:40:20.915Z,7.62
2023-03-26T05:43:32.988Z,7.66
2023-03-26T05:46:53.088Z,7.99
2023-03-26T05:50:20.168Z,7.68
2023-03-26T05:53:28.111Z,8.06
2023-03-26T05:56:51.471Z,8.11
2023-03-26T06:00:16.502Z,8.28
2023-03-26T06:03:25.815Z,7.99
2023-03-26T06:06:46.987Z,8.14
2023-03-26T06:09:56.905Z,8.05
2023-03-26T06:13:03.819Z,8.43
2023-03-26T06:16:27.034Z,8.62
2023-03-26T06:19:59.438Z,8.60
2023-03-26T06:23:12.859Z,8.02
2023-03-26T06:26:42.453Z,8.18
2023-03-26T06:29:59.686Z,8.40
2023-03-26T06:33:26.131Z,8.70
2023-03-26T06:37:12.559Z,8.90
2023-03-26T06:40:53.073Z,8.89
2023-03-26T06:44:28.730Z,9.06
2023-03-26T06:47:52.701Z,8.89
2023-03-26T06:51:21.980Z,9.15
2023-03-26T06:54:46.242Z,9.29
2023-03-26T06:58:21.211Z,10.14
2023-03-26T07:01:49.412Z,10.16
2023-03-26T07:05:14.472Z,10.46
2023-03-26T07:08:38.120Z,10.94
2023-03-26T07:12:14.776Z,11.38
2023-03-26T07:15:46.149Z,12.42
2023-03-26T07:19:02.893Z,12.64
2023-03-26T07:22:18.641Z,13.31
2023-03-26T07:25:42.406Z,13.83
2023-03-26T07:29:31.776Z,14.79
2023-03-26T07:33:18.926Z,15.05
2023-03-26T07:37:16.063Z,15.25
2023-03-26T07:41:16.026Z,16.17
2023-03-26T07:45:02.088Z,16.06
2023-03-26T07:48:32.281Z,17.56
2023-03-26T07:52:03.161Z,17.69
2023-03-26T07:55:55.961Z,18.14
2023-03-26T07:59:31.574Z,18.00
2023-03-26T08:03:27.076Z,18.30
2023-03-26T08:06:38.532Z,18.03
2023-03-26T08:10:20.013Z,17.70
2023-03-26T08:13:41.516Z,17.41
2023-03-26T08:16:55.311Z,17.22
2023-03-26T08:20:28.758Z,16.90
2023-03-26T08:23:52.953Z,16.51
2023-03-26T08:27:17.361Z,16.48
2023-03-26T08:30:50.847Z,15.85
2023-03-26T08:34:02.568Z,15.72
2023-03-26T08:37:10.405Z,15.10
2023-03-26T08:40:42.989Z,15.23
2023-03-26T08:44:21.565Z,15.05
2023-03-26T08:52:54.440Z,14.68
2023-03-26T08:56:09.050Z,14.52
2023-03-26T09:00:06.591Z,14.54
2023-03-26T09:03:50.064Z,14.55
2023-03-26T09:07:34.436Z,14.64
2023-03-26T09:10:53.095Z,14.52
2023-03-26T09:14:43.282Z,14.59
2023-03-26T09:18:34.750Z,14.56
2023-03-26T09:22:38.436Z,14.54
2023-03-26T09:26:04.495Z,14.49
2023-03-26T09:29:54.632Z,14.31
2023-03-26T09:33:47.457Z,14.58
2023-03-26T09:37:05.953Z,14.50
2023-03-26T09:40:22.727Z,14.41
2023-03-26T09:44:21.861Z,14.27
2023-03-26T09:48:16.082Z,14.38
2023-03-26T09:51:48.706Z,14.09
2023-03-26T09:55:09.412Z,14.37
2023-03-26T09:58:41.034Z,14.44
2023-03-26T10:02:07.229Z,14.69
2023-03-26T10:05:48.094Z,14.62
2023-03-26T10:09:50.766Z,14.81
2023-03-26T10:13:23.067Z,15.12
2023-03-26T10:16:46.583Z,15.42
2023-03-26T10:20:09.855Z,15.61
2023-03-26T10:23:31.997Z,15.83
2023-03-26T10:27:09.385Z,16.07
2023-03-26T10:30:30.812Z,15.87
2023-03-26T10:33:49.990Z,15.98
2023-03-26T10:36:59.871Z,16.15
2023-03-26T10:40:19.818Z,16.09
2023-03-26T10:44:07.450Z,16.20
2023-03-26T10:48:13.916Z,16.38
2023-03-26T10:51:53.575Z,16.46
2023-03-26T10:55:12.197Z,16.53
2023-03-26T10:58:26.619Z,16.31
2023-03-26T11:01:41.816Z,16.35
2023-03-26T11:05:02.179Z,16.47
2023-03-26T11:08:19.103Z,16.50
2023-03-26T11:12:26.553Z,16.34
2023-03-26T11:15:50.288Z,16.39
2023-03-26T11:19:21.390Z,16.34
2023-03-26T11:22:43.118Z,16.52
2023-03-26T11:26:11.483Z,16.61
2023-03-26T11:29:40.477Z,16.56
2023-03-26T11:32:59.067Z,16.75
2023-03-26T11:41:06.388Z,16.82
2023-03-26T11:45:17.864Z,16.91
2023-03-26T11:48:34.344Z,16.68
2023-03-26T11:51:52.349Z,16.71
2023-03-26T11:55:15.161Z,16.43
2023-03-26T11:58:31.441Z,16.40
2023-03-26T12:01:56.634Z,16.54
2023-03-26T12:05:24.894Z,16.48
2023-03-26T12:08:38.485Z,16.09
2023-03-26T12:15:46.796Z,15.79
2023-03-26T12:19:17.000Z,15.81
2023-03-26T12:23:41.701Z,15.54
2023-03-26T12:26:57.024Z,15.66
2023-03-26T12:30:31.038Z,15.48
2023-03-26T12:33:45.352Z,15.73
2023-03-26T12:37:00.329Z,15.81
2023-03-26T12:40:29.492Z,15.74
2023-03-26T12:44:50.661Z,15.79
2023-03-26T12:47:58.100Z,15.90
2023-03-26T12:51:02.168Z,15.85
2023-03-26T12:54:23.872Z,15.70
2023-03-26T12:57:40.725Z,15.44
2023-03-26T13:00:59.684Z,15.64
2023-03-26T13:04:35.617Z,15.75
2023-03-26T13:07:58.077Z,15.94
2023-03-26T13:11:13.115Z,15.94
2023-03-26T13:15:00.236Z,15.94
2023-03-26T13:18:37.395Z,16.01
2023-03-26T13:22:01.583Z,15.97
2023-03-26T13:25:29.063Z,16.07
2023-03-26T13:28:54.794Z,16.15
2023-03-26T13:36:19.320Z,16.32
2023-03-26T13:39:40.499Z,16.36
2023-03-26T13:43:14.269Z,16.35
2023-03-26T13:46:49.919Z,16.36
2023-03-26T13:50:10.214Z,16.41
2023-03-26T13:53:50.646Z,16.29
2023-03-26T13:58:14.206Z,16.32
2023-03-26T14:01:48.134Z,16.37
2023-03-26T14:04:58.554Z,16.38
2023-03-26T14:08:13.482Z,16.45
2023-03-26T14:11:24.573Z,16.54
2023-03-26T14:14:49.560Z,16.57
2023-03-26T14:18:13.121Z,16.63
2023-03-26T14:21:55.368Z,16.64
2023-03-26T14:25:27.801Z,16.62
2023-03-26T14:30:02.211Z,16.66
2023-03-26T14:33:50.160Z,16.57
2023-03-26T14:37:29.661Z,16.55
2023-03-26T14:40:59.978Z,16.64
2023-03-26T14:45:10.142Z,16.65
2023-03-26T14:48:51.169Z,16.55
2023-03-26T14:52:18.066Z,16.52
2023-03-26T14:56:20.480Z,16.36
2023-03-26T15:00:50.700Z,16.09
2023-03-26T15:04:51.784Z,16.12
2023-03-26T15:08:40.694Z,16.09
2023-03-26T15:12:12.960Z,16.10
2023-03-26T15:15:54.293Z,16.22
2023-03-26T15:19:46.105Z,16.19
2023-03-26T15:23:30.867Z,15.93
2023-03-26T15:27:39.734Z,16.05
2023-03-26T15:31:40.851Z,16.16
2023-03-26T15:35:34.024Z,16.08
2023-03-26T15:39:15.039Z,15.92
2023-03-26T15:42:33.032Z,15.91
2023-03-26T15:45:41.250Z,15.90
2023-03-26T15:48:58.123Z,15.84
2023-03-26T15:52:21.772Z,15.78
2023-03-26T15:55:36.853Z,15.89
2023-03-26T15:59:00.551Z,15.83
2023-03-26T16:02:27.432Z,15.90
2023-03-26T16:05:45.366Z,15.89
2023-03-26T16:09:05.369Z,15.89
2023-03-26T16:12:32.284Z,15.82
2023-03-26T16:15:41.196Z,15.90
2023-03-26T16:19:16.401Z,15.92
2023-03-26T16:22:46.576Z,15.99
2023-03-26T16:26:11.060Z,16.05
2023-03-26T16:29:25.928Z,16.05
2023-03-26T16:32:36.960Z,16.01
2023-03-26T16:36:50.604Z,16.01
2023-03-26T16:41:14.552Z,16.02
2023-03-26T16:45:16.385Z,15.86
2023-03-26T16:49:25.033Z,15.88
2023-03-26T16:53:03.716Z,15.77
2023-03-26T16:56:17.935Z,15.69
2023-03-26T16:59:40.370Z,15.58
2023-03-26T17:03:00.002Z,15.43
2023-03-26T17:06:44.147Z,15.36
2023-03-26T17:10:17.798Z,15.37
2023-03-26T17:13:32.331Z,15.30
2023-03-26T17:16:49.739Z,15.17
2023-03-26T17:20:35.655Z,15.21
2023-03-26T17:24:33.788Z,15.02
2023-03-26T17:28:50.031Z,14.95
2023-03-26T17:32:49.521Z,14.85
2023-03-26T17:41:11.310Z,14.70
2023-03-26T17:45:22.796Z,14.52
2023-03-26T17:49:37.923Z,14.61
2023-03-26T17:53:40.193Z,14.36
2023-03-26T17:57:56.638Z,14.51
2023-03-26T18:01:28.999Z,14.45
2023-03-26T18:04:39.096Z,14.36
2023-03-26T18:08:12.576Z,14.46
2023-03-26T18:11:45.762Z,14.37
2023-03-26T18:15:13.565Z,14.49
2023-03-26T18:18:22.866Z,14.52
2023-03-26T18:21:36.170Z,14.39
2023-03-26T18:24:43.623Z,14.26
2023-03-26T18:31:39.606Z,14.22
2023-03-26T18:35:27.849Z,14.05
2023-03-26T18:39:42.541Z,13.88
2023-03-26T18:43:03.051Z,13.91
2023-03-26T18:46:34.531Z,13.61
2023-03-26T18:54:10.582Z,13.21
2023-03-26T18:57:23.460Z,13.25
2023-03-26T19:00:53.415Z,13.23
2023-03-26T19:04:32.601Z,12.82
2023-03-26T19:08:30.448Z,12.96
2023-03-26T19:12:11.819Z,12.43
2023-03-26T19:16:06.516Z,12.59
2023-03-26T19:20:02.914Z,11.96
2023-03-26T19:28:00.512Z,12.12
2023-03-26T19:33:13.566Z,11.89
2023-03-26T19:50:42.414Z,11.87
2023-03-26T19:54:59.007Z,11.97
2023-03-26T20:02:56.748Z,11.53
2023-03-26T20:07:15.145Z,10.71
2023-03-26T20:11:07.328Z,10.72
2023-03-26T20:15:05.653Z,10.96
2023-03-26T20:28:02.670Z,10.99
2023-03-26T20:31:52.121Z,10.69
2023-03-26T20:40:48.363Z,10.62
2023-03-26T20:45:10.829Z,10.72
2023-03-26T20:50:22.781Z,10.42
2023-03-26T20:54:02.903Z,10.49
2023-03-26T20:57:56.913Z,10.33
2023-03-26T21:01:12.248Z,10.44
2023-03-26T21:05:09.550Z,10.46
2023-03-26T21:08:54.485Z,10.61
2023-03-26T21:12:50.170Z,10.57
2023-03-26T21:16:46.682Z,10.45
2023-03-26T21:20:47.886Z,10.49
2023-03-26T21:25:09.146Z,10.66
2023-03-26T21:33:26.097Z,10.42
2023-03-26T21:37:21.586Z,10.35
2023-03-26T21:41:13.196Z,10.49
2023-03-26T21:45:53.958Z,10.26
2023-03-26T21:49:35.097Z,10.42
2023-03-26T21:53:58.035Z,10.26
2023-03-26T22:06:32.449Z,10.27
2023-03-26T22:10:23.352Z,10.15
2023-03-26T22:13:44.883Z,9.63
2023-03-26T22:17:22.084Z,9.50
2023-03-26T22:21:41.934Z,9.60
2023-03-26T22:25:36.169Z,9.27
2023-03-26T22:29:44.744Z,9.47
2023-03-26T22:33:45.071Z,9.52
2023-03-26T22:37:32.886Z,9.64
2023-03-26T22:41:51.452Z,9.79
2023-03-26T22:45:32.793Z,9.76
2023-03-26T22:50:00.359Z,9.81
2023-03-26T22:53:56.945Z,9.49
2023-03-26T22:58:19.438Z,10.02
2023-03-26T23:02:38.361Z,9.57
2023-03-26T23:06:52.175Z,9.77
2023-03-26T23:11:18.665Z,10.19
2023-03-26T23:14:45.419Z,10.33
2023-03-26T23:18:47.900Z,10.37
2023-03-26T23:22:38.794Z,10.52
2023-03-26T23:26:07.330Z,10.66
2023-03-26T23:29:29.431Z,10.72
2023-03-26T23:33:22.668Z,10.63
2023-03-26T23:37:16.978Z,10.86
2023-03-26T23:41:23.979Z,10.71
2023-03-26T23:45:00.054Z,10.91
2023-03-26T23:48:34.229Z,10.88
2023-03-26T23:57:52.986Z,10.94
